首页
METAR-TAF:

METAR-TAF

机场 :

哈利法克斯罗伯特·洛恩·斯坦菲尔德国际机场

哈利法克斯, 新斯科舍, 加拿大

纬度: 44-53N, 经度: 063-30W, 海拔: 145米

当前天气观测

该预报发布于25分钟前的03:00 UTC
风速11节,风向北转西北
温度 12°C
湿度 76%
气压 1011 hPa
能見度: 24.1公里
散云层高于1700英尺
多云层高于6500英尺

METAR: CYHZ 010300Z 34011KT 15SM SCT017 BKN065 12/08 A2985 RMK SC3SC3 SLP109

时间: 00:25 (03:25 UTC)

预报

该预报发布于55分钟前的02:30 UTC
预报有效从01日的 03点(UTC)到 01日的 24点(UTC)
风速12节,风向北转西北
能見度: 10公里
多云层高于5000英尺
从 01日的 0500点(UTC)
风速10节,风向,有时为20节阵风
能見度: 10公里
多云层高于1500英尺
阴天层高于6000英尺
短暂存在
从 01日的 05点(UTC)到 01日的 12点(UTC)
散云层高于1500英尺
多云层高于6000英尺
从 01日的 1200点(UTC)
风速10节,风向北转西北,有时为20节阵风
能見度: 10公里
散云层高于2000英尺
多云层高于5000英尺
从 01日的 1500点(UTC)
风速12节,风向北转西北
能見度: 10公里
多云层高于5000英尺
成为
从 01日的 16点(UTC)到 01日的 18点(UTC)
风速15节,风向

TAF: CYHZ 010230Z 0103/0124 33012KT P6SM BKN050 FM010500 35010G20KT P6SM BKN015 OVC060 TEMPO 0105/0112 SCT015 BKN060 FM011200 34010G20KT P6SM SCT020 BKN050 FM011500 34012KT P6SM BKN050 BECMG 0116/0118 36015KT RMK NXT FCST BY 010600Z

超过4000个机场的气象观测和天气预报(METAR&TAF报告)。

可查询的气象台以黄色和红色小点在地图上表示。

将鼠标移到小点上方,可查看气象台名称。

然后点击查看天气观测和预报。

如需切换地图:点击带黑十字的绿色按钮放大地图;点击带横线的绿色按钮缩小地图;或者点击绿色箭头查看邻近地区的地图。


METAR-TAF: